Terminal Aerodrome Forecast
Issued by NWS North Platte, NE

Home | Current Version | Previous Version | Text Only | Print | Product List | Glossary Off
Versions: 1 2 3 4 5 6 7 8 9 10 11 12 13 14 15 16

000
FTUS43 KLBF 191720
TAFVTN
TAF
KVTN 191720Z 1918/2018 25014KT P6SM SKC
     FM192300 23006KT P6SM FEW250
     FM201100 26008KT P6SM FEW250
     FM201700 27010G17KT P6SM FEW250=

USA.gov is the U.S. government's official web portal to all federal, state and local government web resources and services.